createdAt,value
2022-12-09T00:00:55.043Z,6.55
2022-12-09T00:01:56.600Z,6.50
2022-12-09T00:02:58.942Z,10.20
2022-12-09T00:04:00.832Z,10.75
2022-12-09T00:05:02.579Z,8.75
2022-12-09T00:06:15.011Z,9.18
2022-12-09T00:07:17.102Z,8.98
2022-12-09T00:08:18.957Z,7.90
2022-12-09T00:09:20.594Z,7.65
2022-12-09T00:10:22.334Z,6.70
2022-12-09T00:11:25.292Z,6.32
2022-12-09T00:12:27.117Z,6.50
2022-12-09T00:13:29.660Z,6.22
2022-12-09T00:14:31.323Z,6.53
2022-12-09T00:15:33.144Z,6.00
2022-12-09T00:16:35.278Z,5.85
2022-12-09T00:17:36.891Z,5.72
2022-12-09T00:18:38.721Z,7.47
2022-12-09T00:19:40.227Z,6.30
2022-12-09T00:20:41.726Z,7.22
2022-12-09T00:21:43.894Z,7.07
2022-12-09T00:22:45.472Z,6.55
2022-12-09T00:23:47.862Z,6.25
2022-12-09T00:24:49.340Z,7.60
2022-12-09T00:25:51.123Z,6.80
2022-12-09T00:26:52.583Z,7.00
2022-12-09T00:27:54.175Z,6.88
2022-12-09T00:28:56.696Z,6.30
2022-12-09T00:29:58.176Z,6.97
2022-12-09T00:31:00.793Z,7.47
2022-12-09T00:32:03.005Z,6.82
2022-12-09T00:33:04.768Z,7.18
2022-12-09T00:34:10.422Z,7.10
2022-12-09T00:35:11.871Z,7.90
2022-12-09T00:36:16.180Z,6.32
2022-12-09T00:37:18.155Z,7.90
2022-12-09T00:38:19.626Z,7.38
2022-12-09T00:39:21.055Z,6.97
2022-12-09T00:40:22.610Z,7.10
2022-12-09T00:41:25.120Z,7.18
2022-12-09T00:42:26.933Z,7.18
2022-12-09T00:43:28.367Z,6.95
2022-12-09T00:44:29.885Z,6.40
2022-12-09T00:45:31.310Z,6.90
2022-12-09T00:46:33.371Z,6.20
2022-12-09T00:47:35.686Z,7.65
2022-12-09T00:48:39.826Z,7.18
2022-12-09T00:49:41.562Z,7.22
2022-12-09T00:50:44.864Z,6.85
2022-12-09T00:51:46.992Z,7.28
2022-12-09T00:52:48.415Z,7.47
2022-12-09T00:53:55.950Z,6.63
2022-12-09T00:54:57.879Z,6.82
2022-12-09T00:55:59.675Z,7.07
2022-12-09T00:57:01.721Z,7.95
2022-12-09T00:58:03.523Z,6.78
2022-12-09T00:59:05.019Z,6.88
2022-12-09T01:00:07.948Z,6.80
2022-12-09T01:01:09.888Z,7.35
2022-12-09T01:02:11.836Z,7.55
2022-12-09T01:03:18.613Z,7.72
2022-12-09T01:04:20.388Z,7.78
2022-12-09T01:05:22.538Z,7.63
2022-12-09T01:06:26.170Z,6.75
2022-12-09T01:07:27.653Z,7.20
2022-12-09T01:08:29.232Z,7.55
2022-12-09T01:09:33.505Z,6.93
2022-12-09T01:10:35.313Z,7.13
2022-12-09T01:11:37.103Z,7.30
2022-12-09T01:12:39.101Z,6.80
2022-12-09T01:13:41.342Z,6.80
2022-12-09T01:14:42.988Z,7.25
2022-12-09T01:15:45.332Z,7.30
2022-12-09T01:16:47.557Z,7.70
2022-12-09T01:17:49.103Z,7.35
2022-12-09T01:18:52.764Z,7.60
2022-12-09T01:19:54.271Z,7.93
2022-12-09T01:20:57.689Z,6.82
2022-12-09T01:21:59.968Z,7.30
2022-12-09T01:23:02.185Z,7.53
2022-12-09T01:24:11.566Z,6.90
2022-12-09T01:25:13.440Z,7.60
2022-12-09T01:26:14.951Z,7.68
2022-12-09T01:27:16.757Z,7.53
2022-12-09T01:28:18.509Z,7.78
2022-12-09T01:29:20.133Z,7.53
2022-12-09T01:30:21.664Z,7.45
2022-12-09T01:31:25.078Z,6.95
2022-12-09T01:32:27.116Z,7.80
2022-12-09T01:33:28.865Z,7.85
2022-12-09T01:34:30.602Z,7.03
2022-12-09T01:35:32.183Z,8.13
2022-12-09T01:36:34.287Z,7.32
2022-12-09T01:37:37.373Z,7.68
2022-12-09T01:40:47.045Z,7.15
2022-12-09T01:41:51.990Z,7.47
2022-12-09T01:42:53.543Z,7.50
2022-12-09T01:44:16.998Z,7.70
2022-12-09T01:45:30.403Z,6.65
2022-12-09T01:46:32.026Z,7.32
2022-12-09T01:47:34.169Z,6.85
2022-12-09T01:48:42.547Z,7.70
2022-12-09T01:49:46.616Z,7.05
2022-12-09T01:50:57.648Z,7.80
2022-12-09T01:52:16.561Z,7.38
2022-12-09T01:53:21.592Z,7.50
2022-12-09T01:54:23.214Z,7.65
2022-12-09T01:55:25.358Z,7.63
2022-12-09T01:56:34.066Z,6.70
2022-12-09T01:57:36.638Z,6.38
2022-12-09T01:58:38.572Z,6.90
2022-12-09T01:59:41.886Z,8.18
2022-12-09T02:00:45.195Z,8.20
2022-12-09T02:01:50.886Z,7.35
2022-12-09T02:02:56.475Z,7.88
2022-12-09T02:03:59.189Z,7.75
2022-12-09T02:05:01.730Z,7.75
2022-12-09T02:06:03.365Z,8.25
2022-12-09T02:07:11.716Z,7.78
2022-12-09T02:08:16.282Z,7.15
2022-12-09T02:09:18.026Z,7.38
2022-12-09T02:10:20.003Z,7.20
2022-12-09T02:11:40.092Z,7.05
2022-12-09T02:12:57.625Z,7.22
2022-12-09T02:14:14.074Z,6.35
2022-12-09T02:15:24.324Z,7.60
2022-12-09T02:16:29.148Z,7.20
2022-12-09T02:17:51.468Z,7.70
2022-12-09T02:19:03.811Z,7.65
2022-12-09T02:20:22.821Z,7.95
2022-12-09T02:21:37.558Z,6.68
2022-12-09T02:22:46.033Z,7.20
2022-12-09T02:24:05.595Z,7.05
2022-12-09T02:25:21.882Z,6.90
2022-12-09T02:26:45.279Z,7.03
2022-12-09T02:28:10.850Z,7.20
2022-12-09T02:29:21.044Z,6.50
2022-12-09T02:30:37.720Z,7.20
2022-12-09T02:31:51.800Z,7.40
2022-12-09T02:33:32.049Z,6.50
2022-12-09T02:34:39.734Z,8.00
2022-12-09T02:36:05.741Z,7.05
2022-12-09T02:37:23.517Z,8.10
2022-12-09T02:38:31.746Z,7.20
2022-12-09T02:39:42.228Z,8.02
2022-12-09T02:40:50.445Z,7.93
2022-12-09T02:41:54.203Z,7.43
2022-12-09T02:42:57.696Z,7.25
2022-12-09T02:44:09.612Z,6.93
2022-12-09T02:45:13.505Z,6.45
2022-12-09T02:46:17.025Z,7.75
2022-12-09T02:47:24.474Z,7.25
2022-12-09T02:48:34.015Z,6.65
2022-12-09T02:49:36.841Z,7.03
2022-12-09T02:50:42.421Z,8.10
2022-12-09T02:51:45.207Z,7.65
2022-12-09T02:52:48.376Z,7.10
2022-12-09T02:53:55.564Z,6.95
2022-12-09T02:55:00.461Z,6.70
2022-12-09T02:56:04.522Z,7.28
2022-12-09T02:57:18.512Z,7.57
2022-12-09T02:58:20.070Z,8.02
2022-12-09T02:59:22.201Z,7.07
2022-12-09T03:00:23.724Z,8.13
2022-12-09T03:01:41.387Z,8.50
2022-12-09T03:02:47.863Z,7.10
2022-12-09T03:03:51.007Z,7.70
2022-12-09T03:06:19.968Z,7.53
2022-12-09T03:07:55.893Z,7.38
2022-12-09T03:09:09.612Z,7.88
2022-12-09T03:10:22.429Z,7.00
2022-12-09T03:11:26.027Z,7.32
2022-12-09T03:12:32.076Z,7.25
2022-12-09T03:13:52.810Z,8.32
2022-12-09T03:14:55.815Z,8.75
2022-12-09T03:16:08.252Z,8.88
2022-12-09T03:17:14.485Z,8.20
2022-12-09T03:18:19.280Z,8.60
2022-12-09T03:19:45.894Z,7.38
2022-12-09T03:20:50.365Z,7.78
2022-12-09T03:21:55.928Z,8.10
2022-12-09T03:23:01.425Z,7.78
2022-12-09T03:24:04.653Z,8.32
2022-12-09T03:25:12.946Z,7.57
2022-12-09T03:26:16.319Z,7.70
2022-12-09T03:27:25.513Z,8.60
2022-12-09T03:29:44.538Z,7.30
2022-12-09T03:30:46.748Z,8.00
2022-12-09T03:31:50.945Z,9.25
2022-12-09T03:32:54.774Z,7.82
2022-12-09T03:34:01.293Z,8.85
2022-12-09T03:35:10.831Z,8.63
2022-12-09T03:36:14.858Z,7.60
2022-12-09T03:37:18.928Z,8.40
2022-12-09T03:38:23.497Z,6.80
2022-12-09T03:39:29.199Z,7.82
2022-12-09T03:40:32.367Z,7.30
2022-12-09T03:42:49.310Z,6.40
2022-12-09T03:43:55.614Z,7.05
2022-12-09T03:45:01.248Z,7.28
2022-12-09T03:46:03.443Z,8.10
2022-12-09T03:47:07.924Z,8.27
2022-12-09T03:48:10.998Z,7.40
2022-12-09T03:50:15.005Z,7.38
2022-12-09T03:51:26.756Z,6.50
2022-12-09T03:52:41.511Z,6.50
2022-12-09T03:53:58.915Z,6.50
2022-12-09T03:55:08.191Z,5.65
2022-12-09T03:57:22.536Z,6.40
2022-12-09T03:58:25.745Z,6.93
2022-12-09T03:59:31.317Z,6.70
2022-12-09T04:00:37.441Z,6.25
2022-12-09T04:01:41.820Z,7.05
2022-12-09T04:02:44.573Z,6.53
2022-12-09T04:03:49.949Z,7.30
2022-12-09T04:04:51.945Z,7.10
2022-12-09T04:05:53.856Z,7.85
2022-12-09T04:06:55.811Z,7.05
2022-12-09T04:07:57.380Z,7.10
2022-12-09T04:09:02.328Z,7.93
2022-12-09T04:10:06.238Z,6.72
2022-12-09T04:11:08.392Z,7.50
2022-12-09T04:12:10.073Z,7.40
2022-12-09T04:13:12.440Z,6.95
2022-12-09T04:14:16.003Z,7.32
2022-12-09T04:15:18.185Z,7.03
2022-12-09T04:16:19.738Z,7.50
2022-12-09T04:17:21.890Z,6.75
2022-12-09T04:18:24.172Z,6.80
2022-12-09T04:19:25.997Z,7.20
2022-12-09T04:20:28.028Z,6.70
2022-12-09T04:21:29.569Z,6.45
2022-12-09T04:22:31.295Z,6.70
2022-12-09T04:23:35.580Z,7.15
2022-12-09T04:24:39.346Z,6.32
2022-12-09T04:25:40.969Z,7.57
2022-12-09T04:26:42.586Z,7.82
2022-12-09T04:27:44.312Z,6.88
2022-12-09T04:28:46.490Z,6.38
2022-12-09T04:29:48.065Z,7.03
2022-12-09T04:30:49.781Z,6.43
2022-12-09T04:31:51.402Z,7.20
2022-12-09T04:32:52.958Z,7.38
2022-12-09T04:33:54.475Z,6.57
2022-12-09T04:34:56.143Z,7.30
2022-12-09T04:36:07.495Z,7.18
2022-12-09T04:37:09.296Z,6.68
2022-12-09T04:38:11.391Z,7.45
2022-12-09T04:39:12.850Z,6.82
2022-12-09T04:40:19.636Z,7.10
2022-12-09T04:41:24.637Z,8.30
2022-12-09T04:42:28.423Z,7.78
2022-12-09T04:43:30.893Z,8.80
2022-12-09T04:44:32.330Z,8.60
2022-12-09T04:45:34.439Z,8.05
2022-12-09T04:46:36.158Z,8.20
2022-12-09T04:47:38.433Z,7.22
2022-12-09T04:48:40.581Z,7.90
2022-12-09T04:49:42.105Z,8.40
2022-12-09T04:50:43.707Z,7.32
2022-12-09T04:51:45.212Z,6.70
2022-12-09T04:52:47.108Z,7.50
2022-12-09T04:53:48.758Z,7.22
2022-12-09T04:54:51.111Z,6.60
2022-12-09T04:56:04.243Z,7.07
2022-12-09T04:57:05.914Z,7.80
2022-12-09T04:58:07.784Z,7.90
2022-12-09T04:59:09.435Z,7.38
2022-12-09T05:00:13.731Z,7.07
2022-12-09T05:01:21.623Z,6.63
2022-12-09T05:02:26.789Z,6.60
2022-12-09T05:03:28.793Z,6.93
2022-12-09T05:04:30.571Z,6.45
2022-12-09T05:05:32.252Z,7.50
2022-12-09T05:06:34.603Z,7.43
2022-12-09T05:07:36.655Z,7.13
2022-12-09T05:08:39.253Z,7.15
2022-12-09T05:09:41.126Z,7.35
2022-12-09T05:10:48.316Z,7.63
2022-12-09T05:11:52.431Z,7.90
2022-12-09T05:12:53.945Z,8.05
2022-12-09T05:13:56.001Z,6.40
2022-12-09T05:14:58.966Z,6.85
2022-12-09T05:16:01.537Z,6.90
2022-12-09T05:17:04.436Z,7.80
2022-12-09T05:18:06.175Z,7.88
2022-12-09T05:19:08.631Z,7.05
2022-12-09T05:20:11.758Z,6.63
2022-12-09T05:21:16.587Z,8.35
2022-12-09T05:22:18.963Z,7.88
2022-12-09T05:23:21.401Z,7.18
2022-12-09T05:24:23.064Z,8.23
2022-12-09T05:25:24.994Z,7.93
2022-12-09T05:26:26.596Z,8.38
2022-12-09T05:27:28.278Z,8.13
2022-12-09T05:28:31.355Z,7.15
2022-12-09T05:29:33.070Z,7.22
2022-12-09T05:30:34.761Z,7.35
2022-12-09T05:31:36.566Z,7.13
2022-12-09T05:32:38.515Z,7.18
2022-12-09T05:33:40.619Z,6.85
2022-12-09T05:34:42.316Z,7.10
2022-12-09T05:35:52.245Z,7.35
2022-12-09T05:36:54.231Z,7.45
2022-12-09T05:37:56.039Z,7.50
2022-12-09T05:38:58.013Z,7.00
2022-12-09T05:39:59.896Z,7.07
2022-12-09T05:41:01.453Z,7.68
2022-12-09T05:42:03.608Z,7.20
2022-12-09T05:43:05.123Z,8.02
2022-12-09T05:44:07.059Z,7.18
2022-12-09T05:45:09.005Z,7.70
2022-12-09T05:46:11.568Z,7.32
2022-12-09T05:47:13.552Z,7.95
2022-12-09T05:48:15.229Z,6.80
2022-12-09T05:49:17.706Z,7.50
2022-12-09T05:50:19.737Z,7.82
2022-12-09T05:51:24.613Z,7.95
2022-12-09T05:52:26.250Z,7.90
2022-12-09T05:53:29.150Z,6.68
2022-12-09T05:54:30.988Z,6.80
2022-12-09T05:55:32.609Z,7.88
2022-12-09T05:56:34.562Z,6.60
2022-12-09T05:57:36.897Z,7.45
2022-12-09T05:58:38.757Z,7.78
2022-12-09T05:59:40.321Z,6.75
2022-12-09T06:00:41.926Z,7.57
2022-12-09T06:01:43.479Z,7.03
2022-12-09T06:02:45.531Z,6.40
2022-12-09T06:03:48.669Z,6.93
2022-12-09T06:04:51.155Z,6.35
2022-12-09T06:05:53.291Z,7.15
2022-12-09T06:06:55.193Z,7.28
2022-12-09T06:07:58.244Z,6.75
2022-12-09T06:09:02.936Z,6.80
2022-12-09T06:10:05.578Z,7.03
2022-12-09T06:11:34.120Z,7.03
2022-12-09T06:12:35.682Z,6.65
2022-12-09T06:13:37.722Z,6.88
2022-12-09T06:14:39.399Z,7.13
2022-12-09T06:15:41.624Z,7.15
2022-12-09T06:16:43.446Z,7.40
2022-12-09T06:17:45.537Z,7.25
2022-12-09T06:18:48.585Z,6.90
2022-12-09T06:19:50.586Z,7.40
2022-12-09T06:20:52.379Z,6.50
2022-12-09T06:21:53.925Z,7.38
2022-12-09T06:22:55.804Z,7.53
2022-12-09T06:23:57.977Z,7.72
2022-12-09T06:24:59.501Z,6.80
2022-12-09T06:26:00.963Z,7.35
2022-12-09T06:27:03.367Z,7.63
2022-12-09T06:28:05.528Z,7.65
2022-12-09T06:29:07.160Z,7.82
2022-12-09T06:30:09.430Z,13.82
2022-12-09T06:31:11.129Z,26.02
2022-12-09T06:32:13.152Z,19.85
2022-12-09T06:33:45.109Z,13.90
2022-12-09T06:34:37.174Z,13.45
2022-12-09T06:35:38.765Z,11.73
2022-12-09T06:36:40.497Z,10.07
2022-12-09T06:37:42.332Z,9.68
2022-12-09T06:38:44.441Z,9.02
2022-12-09T06:39:47.244Z,8.50
2022-12-09T06:40:49.184Z,7.60
2022-12-09T06:41:50.892Z,8.07
2022-12-09T06:42:53.108Z,7.15
2022-12-09T06:43:57.761Z,7.50
2022-12-09T06:44:59.445Z,6.97
2022-12-09T06:46:01.320Z,8.30
2022-12-09T06:47:03.261Z,8.40
2022-12-09T06:48:05.684Z,8.30
2022-12-09T06:49:07.269Z,7.25
2022-12-09T06:50:09.671Z,8.15
2022-12-09T06:51:11.977Z,7.32
2022-12-09T06:52:13.611Z,7.22
2022-12-09T06:53:15.432Z,7.93
2022-12-09T06:54:17.320Z,6.78
2022-12-09T06:55:19.202Z,6.63
2022-12-09T06:56:20.975Z,7.65
2022-12-09T06:57:22.920Z,8.07
2022-12-09T06:58:25.059Z,8.07
2022-12-09T06:59:26.967Z,7.70
2022-12-09T07:00:29.119Z,7.68
2022-12-09T07:01:30.833Z,8.23
2022-12-09T07:02:36.755Z,7.63
2022-12-09T07:03:42.893Z,6.95
2022-12-09T07:04:45.162Z,7.85
2022-12-09T07:05:47.263Z,8.85
2022-12-09T07:06:49.091Z,8.55
2022-12-09T07:07:52.457Z,8.25
2022-12-09T07:08:56.374Z,7.78
2022-12-09T07:09:58.104Z,7.50
2022-12-09T07:11:00.364Z,8.73
2022-12-09T07:12:02.244Z,7.55
2022-12-09T07:13:04.271Z,7.80
2022-12-09T07:14:07.435Z,7.95
2022-12-09T07:16:11.902Z,7.10
2022-12-09T07:17:18.570Z,7.75
2022-12-09T07:18:20.337Z,7.07
2022-12-09T07:19:23.337Z,7.57
2022-12-09T07:20:25.395Z,8.00
2022-12-09T07:21:28.378Z,8.30
2022-12-09T07:22:30.633Z,8.00
2022-12-09T07:23:32.481Z,8.40
2022-12-09T07:24:34.049Z,8.43
2022-12-09T07:25:35.599Z,16.52
2022-12-09T07:26:37.667Z,18.90
2022-12-09T07:27:39.786Z,15.07
2022-12-09T07:28:42.702Z,11.27
2022-12-09T07:30:46.267Z,9.60
2022-12-09T07:31:48.596Z,8.68
2022-12-09T07:32:50.847Z,9.30
2022-12-09T07:33:54.598Z,10.20
2022-12-09T07:34:56.476Z,8.75
2022-12-09T07:35:59.423Z,10.18
2022-12-09T07:37:01.228Z,9.57
2022-12-09T07:38:03.147Z,9.40
2022-12-09T07:39:09.085Z,9.02
2022-12-09T07:40:11.197Z,9.55
2022-12-09T07:41:18.297Z,8.27
2022-12-09T07:42:19.899Z,9.38
2022-12-09T07:43:21.778Z,7.75
2022-12-09T07:44:24.755Z,8.13
2022-12-09T07:45:26.310Z,7.85
2022-12-09T07:46:28.565Z,8.18
2022-12-09T07:47:30.993Z,7.70
2022-12-09T07:48:32.860Z,7.47
2022-12-09T07:49:34.882Z,7.43
2022-12-09T07:50:37.075Z,8.00
2022-12-09T07:51:38.931Z,8.32
2022-12-09T07:52:40.922Z,7.53
2022-12-09T07:53:43.129Z,7.40
2022-12-09T07:54:44.984Z,8.20
2022-12-09T07:55:46.680Z,7.90
2022-12-09T07:56:48.787Z,6.90
2022-12-09T07:57:50.432Z,7.20
2022-12-09T07:58:53.710Z,8.18
2022-12-09T07:59:56.900Z,7.90
2022-12-09T08:01:05.657Z,7.38
2022-12-09T08:02:07.667Z,8.40
2022-12-09T08:03:11.762Z,7.95
2022-12-09T08:04:14.367Z,7.45
2022-12-09T08:05:16.708Z,7.35
2022-12-09T08:06:22.021Z,9.45
2022-12-09T08:07:24.028Z,17.75
2022-12-09T08:08:26.591Z,22.30
2022-12-09T08:09:28.524Z,21.42
2022-12-09T08:10:30.664Z,15.70
2022-12-09T08:11:34.014Z,13.43
2022-12-09T08:12:36.248Z,9.45
2022-12-09T08:13:38.466Z,9.65
2022-12-09T08:14:40.373Z,8.98
2022-12-09T08:15:42.153Z,7.70
2022-12-09T08:16:44.702Z,8.93
2022-12-09T08:17:46.589Z,8.05
2022-12-09T08:18:49.016Z,7.82
2022-12-09T08:19:50.915Z,8.05
2022-12-09T08:20:52.773Z,8.02
2022-12-09T08:21:54.875Z,8.23
2022-12-09T08:22:57.434Z,8.20
2022-12-09T08:24:01.734Z,9.45
2022-12-09T08:25:04.792Z,8.80
2022-12-09T08:26:07.558Z,9.13
2022-12-09T08:27:09.262Z,8.73
2022-12-09T08:28:11.623Z,8.57
2022-12-09T08:29:14.378Z,7.95
2022-12-09T08:30:17.246Z,8.20
2022-12-09T08:32:23.505Z,8.65
2022-12-09T08:33:25.609Z,7.97
2022-12-09T08:34:27.838Z,8.00
2022-12-09T08:35:29.964Z,9.13
2022-12-09T08:36:36.927Z,8.57
2022-12-09T08:37:38.793Z,7.93
2022-12-09T08:38:40.707Z,10.10
2022-12-09T08:39:42.497Z,7.97
2022-12-09T08:40:44.388Z,9.15
2022-12-09T08:41:46.135Z,8.75
2022-12-09T08:42:47.801Z,8.02
2022-12-09T08:43:49.425Z,8.88
2022-12-09T08:44:51.826Z,8.25
2022-12-09T08:46:00.299Z,8.60
2022-12-09T08:47:02.411Z,9.30
2022-12-09T08:48:04.635Z,9.57
2022-12-09T08:49:07.381Z,9.63
2022-12-09T08:50:09.947Z,9.50
2022-12-09T08:51:12.341Z,10.25
2022-12-09T08:52:14.266Z,9.60
2022-12-09T08:53:16.043Z,8.57
2022-12-09T08:54:18.261Z,8.93
2022-12-09T08:55:20.307Z,9.73
2022-12-09T08:56:21.893Z,9.57
2022-12-09T08:57:24.285Z,10.10
2022-12-09T08:58:25.901Z,9.48
2022-12-09T08:59:27.705Z,8.93
2022-12-09T09:00:29.734Z,10.02
2022-12-09T09:01:32.651Z,9.35
2022-12-09T09:02:35.319Z,9.43
2022-12-09T09:03:37.402Z,8.98
2022-12-09T09:04:39.254Z,9.80
2022-12-09T09:05:41.637Z,9.38
2022-12-09T09:06:46.804Z,10.18
2022-12-09T09:07:48.620Z,10.55
2022-12-09T09:08:50.360Z,9.70
2022-12-09T09:09:52.308Z,11.10
2022-12-09T09:10:55.099Z,13.13
2022-12-09T09:11:57.254Z,11.57
2022-12-09T09:12:58.947Z,13.30
2022-12-09T09:14:06.821Z,12.85
2022-12-09T09:15:09.337Z,12.63
2022-12-09T09:17:16.003Z,10.45
2022-12-09T09:18:17.703Z,9.20
2022-12-09T09:19:22.829Z,11.57
2022-12-09T09:20:24.794Z,9.93
2022-12-09T09:21:26.999Z,10.35
2022-12-09T09:22:29.842Z,9.02
2022-12-09T09:23:31.535Z,9.80
2022-12-09T09:24:33.254Z,9.82
2022-12-09T09:25:37.019Z,9.20
2022-12-09T09:26:42.845Z,9.55
2022-12-09T09:27:44.755Z,11.63
2022-12-09T09:28:47.328Z,9.60
2022-12-09T09:29:48.938Z,10.00
2022-12-09T09:30:50.611Z,9.95
2022-12-09T09:31:56.470Z,9.32
2022-12-09T09:32:58.429Z,9.25
2022-12-09T09:34:01.014Z,10.07
2022-12-09T09:35:03.308Z,9.52
2022-12-09T09:36:10.477Z,9.43
2022-12-09T09:37:12.830Z,9.88
2022-12-09T09:38:14.617Z,9.30
2022-12-09T09:39:16.216Z,10.00
2022-12-09T09:40:18.565Z,9.60
2022-12-09T09:41:42.935Z,10.15
2022-12-09T09:42:49.190Z,9.73
2022-12-09T09:43:51.823Z,10.70
2022-12-09T09:44:54.908Z,9.98
2022-12-09T09:47:03.772Z,9.77
2022-12-09T09:48:06.439Z,9.40
2022-12-09T09:49:18.882Z,10.93
2022-12-09T09:50:37.768Z,9.70
2022-12-09T09:51:40.052Z,10.35
2022-12-09T09:52:42.687Z,9.52
2022-12-09T09:53:49.861Z,11.05
2022-12-09T09:54:52.685Z,10.88
2022-12-09T09:56:24.754Z,10.38
2022-12-09T09:57:36.645Z,9.27
2022-12-09T09:58:45.998Z,10.52
2022-12-09T10:00:08.434Z,9.65
2022-12-09T10:01:14.656Z,10.18
2022-12-09T10:02:23.284Z,10.98
2022-12-09T10:03:53.937Z,9.48
2022-12-09T10:05:13.295Z,9.73
2022-12-09T10:06:30.213Z,9.35
2022-12-09T10:07:43.653Z,9.93
2022-12-09T10:08:48.737Z,11.43
2022-12-09T10:10:17.539Z,10.85
2022-12-09T10:11:26.948Z,9.88
2022-12-09T10:12:37.228Z,10.50
2022-12-09T10:13:57.361Z,10.20
2022-12-09T10:15:12.378Z,9.93
2022-12-09T10:16:21.952Z,8.82
2022-12-09T10:17:33.131Z,9.10
2022-12-09T10:19:06.003Z,9.25
2022-12-09T10:20:21.408Z,8.88
2022-12-09T10:21:23.831Z,9.90
2022-12-09T10:22:29.810Z,10.18
2022-12-09T10:23:33.038Z,9.95
2022-12-09T10:24:39.922Z,9.93
2022-12-09T10:25:49.138Z,9.52
2022-12-09T10:27:04.902Z,10.23
2022-12-09T10:28:23.895Z,9.50
2022-12-09T10:29:44.020Z,10.38
2022-12-09T10:30:46.058Z,9.82
2022-12-09T10:31:47.695Z,9.32
2022-12-09T10:32:50.201Z,9.93
2022-12-09T10:33:52.358Z,9.25
2022-12-09T10:34:54.210Z,9.32
2022-12-09T10:35:56.936Z,8.05
2022-12-09T10:36:58.556Z,7.82
2022-12-09T10:38:11.854Z,7.60
2022-12-09T10:39:21.936Z,7.70
2022-12-09T10:40:47.168Z,8.95
2022-12-09T10:42:11.312Z,9.63
2022-12-09T10:43:35.688Z,15.70
2022-12-09T10:44:38.201Z,12.73
2022-12-09T10:47:39.485Z,8.77
2022-12-09T10:48:49.425Z,7.97
2022-12-09T10:49:54.415Z,7.10
2022-12-09T10:50:58.510Z,6.68
2022-12-09T10:52:01.558Z,8.73
2022-12-09T10:54:09.729Z,6.75
2022-12-09T10:55:31.439Z,7.15
2022-12-09T10:56:35.854Z,6.68
2022-12-09T10:57:37.544Z,6.80
2022-12-09T10:58:39.308Z,6.85
2022-12-09T10:59:55.403Z,6.93
2022-12-09T11:01:05.213Z,7.15
2022-12-09T11:02:09.912Z,7.40
2022-12-09T11:03:30.719Z,7.78
2022-12-09T11:04:33.923Z,6.88
2022-12-09T11:05:36.092Z,7.13
2022-12-09T11:06:41.654Z,7.18
2022-12-09T11:07:48.671Z,7.45
2022-12-09T11:09:03.072Z,6.85
2022-12-09T11:10:16.820Z,7.45
2022-12-09T11:11:19.794Z,6.38
2022-12-09T11:12:29.959Z,6.88
2022-12-09T11:13:41.218Z,6.60
2022-12-09T11:14:54.893Z,7.25
2022-12-09T11:16:01.282Z,6.75
2022-12-09T11:17:16.784Z,7.35
2022-12-09T11:18:27.421Z,6.68
2022-12-09T11:19:35.166Z,6.18
2022-12-09T11:20:37.012Z,6.25
2022-12-09T11:21:39.514Z,6.93
2022-12-09T11:22:44.178Z,6.93
2022-12-09T11:24:00.726Z,6.85
2022-12-09T11:25:31.095Z,6.55
2022-12-09T11:26:38.506Z,8.80
2022-12-09T11:27:51.647Z,8.65
2022-12-09T11:29:17.841Z,8.30
2022-12-09T11:30:27.122Z,6.55
2022-12-09T11:31:33.639Z,6.28
2022-12-09T11:32:52.886Z,6.70
2022-12-09T11:33:59.214Z,6.75
2022-12-09T11:35:01.248Z,6.00
2022-12-09T11:36:17.952Z,6.57
2022-12-09T11:37:19.442Z,6.68
2022-12-09T11:38:30.565Z,6.40
2022-12-09T11:39:36.492Z,6.45
2022-12-09T11:40:37.983Z,6.00
2022-12-09T11:42:06.225Z,6.30
2022-12-09T11:43:10.227Z,6.78
2022-12-09T11:44:26.208Z,6.22
2022-12-09T11:45:34.807Z,6.88
2022-12-09T11:46:36.996Z,6.07
2022-12-09T11:49:17.525Z,5.65
2022-12-09T11:50:24.195Z,6.10
2022-12-09T11:51:35.811Z,6.10
2022-12-09T11:52:37.274Z,5.68
2022-12-09T11:53:41.582Z,6.45
2022-12-09T11:55:15.285Z,6.15
2022-12-09T11:56:22.832Z,5.80
2022-12-09T11:57:35.208Z,5.30
2022-12-09T11:58:53.627Z,6.05
2022-12-09T12:00:00.943Z,5.80
2022-12-09T12:01:34.868Z,5.40
2022-12-09T12:02:58.068Z,5.70
2022-12-09T12:04:05.401Z,5.80
2022-12-09T12:05:09.579Z,5.60
2022-12-09T12:06:23.610Z,5.57
2022-12-09T12:07:38.694Z,5.47
2022-12-09T12:08:48.071Z,6.10
2022-12-09T12:09:55.588Z,5.88
2022-12-09T12:11:02.845Z,6.25
2022-12-09T12:12:46.583Z,9.93
2022-12-09T12:13:51.346Z,6.47
2022-12-09T12:14:56.472Z,5.60
2022-12-09T12:16:12.679Z,6.20
2022-12-09T12:17:22.304Z,6.05
2022-12-09T12:18:26.115Z,5.30
2022-12-09T12:19:33.431Z,5.80
2022-12-09T12:21:10.164Z,5.15
2022-12-09T12:22:32.764Z,5.95
2022-12-09T12:24:09.836Z,5.88
2022-12-09T12:25:43.514Z,5.85
2022-12-09T12:27:22.229Z,5.53
2022-12-09T12:28:59.004Z,4.95
2022-12-09T12:30:09.399Z,6.25
2022-12-09T12:32:08.576Z,6.45
2022-12-09T12:35:02.858Z,6.15
2022-12-09T12:36:27.909Z,5.15
2022-12-09T12:38:06.978Z,5.18
2022-12-09T12:39:14.426Z,5.78
2022-12-09T12:40:50.246Z,4.90
2022-12-09T12:42:19.906Z,5.20
2022-12-09T12:43:48.869Z,5.55
2022-12-09T12:45:20.414Z,5.75
2022-12-09T12:46:30.823Z,6.72
2022-12-09T12:47:57.663Z,7.70
2022-12-09T12:49:42.387Z,7.22
2022-12-09T12:51:11.235Z,5.68
2022-12-09T12:52:56.346Z,5.10
2022-12-09T12:54:28.515Z,5.25
2022-12-09T12:56:07.455Z,4.75
2022-12-09T12:57:32.599Z,4.90
2022-12-09T12:58:54.782Z,4.97
2022-12-09T13:00:14.534Z,4.90
2022-12-09T13:01:35.927Z,4.82
2022-12-09T13:04:18.763Z,4.20
2022-12-09T13:05:31.809Z,4.45
2022-12-09T13:06:47.298Z,4.80
2022-12-09T13:08:04.022Z,4.60
2022-12-09T13:09:12.708Z,4.18
2022-12-09T13:10:34.371Z,5.13
2022-12-09T13:11:55.434Z,4.72
2022-12-09T13:12:59.468Z,4.90
2022-12-09T13:14:07.088Z,4.90
2022-12-09T13:15:17.146Z,5.72
2022-12-09T13:16:23.554Z,4.45
2022-12-09T13:17:29.280Z,4.97
2022-12-09T13:18:35.916Z,5.35
2022-12-09T13:19:42.944Z,5.18
2022-12-09T13:20:50.624Z,4.82
2022-12-09T13:21:52.561Z,4.97
2022-12-09T13:23:03.065Z,5.03
2022-12-09T13:24:41.164Z,4.97
2022-12-09T13:26:33.841Z,4.95
2022-12-09T13:27:44.964Z,5.07
2022-12-09T13:28:59.666Z,4.82
2022-12-09T13:30:06.749Z,4.90
2022-12-09T13:31:10.249Z,4.60
2022-12-09T13:32:49.352Z,4.70
2022-12-09T13:34:21.589Z,3.90
2022-12-09T13:35:34.960Z,4.28
2022-12-09T13:36:41.558Z,4.90
2022-12-09T13:37:43.043Z,4.00
2022-12-09T13:38:44.506Z,4.90
2022-12-09T13:39:48.963Z,5.30
2022-12-09T13:40:50.462Z,5.35
2022-12-09T13:42:10.725Z,5.20
2022-12-09T13:43:34.825Z,4.80
2022-12-09T13:44:37.925Z,5.32
2022-12-09T13:45:45.121Z,4.43
2022-12-09T13:46:47.486Z,4.65
2022-12-09T13:47:49.583Z,5.13
2022-12-09T13:48:52.702Z,5.60
2022-12-09T13:49:58.748Z,4.65
2022-12-09T13:51:00.438Z,4.60
2022-12-09T13:52:02.557Z,4.72
2022-12-09T13:53:19.985Z,5.72
2022-12-09T13:54:29.449Z,4.75
2022-12-09T13:55:56.278Z,5.05
2022-12-09T13:57:28.419Z,5.13
2022-12-09T13:59:01.043Z,5.30
2022-12-09T14:00:06.538Z,5.93
2022-12-09T14:01:20.017Z,5.40
2022-12-09T14:02:42.845Z,5.05
2022-12-09T14:04:15.408Z,4.90
2022-12-09T14:05:26.001Z,4.63
2022-12-09T14:06:32.654Z,4.65
2022-12-09T14:07:43.099Z,4.70
2022-12-09T14:08:50.587Z,5.50
2022-12-09T14:09:55.814Z,4.82
2022-12-09T14:10:58.272Z,4.50
2022-12-09T14:12:03.284Z,5.00
2022-12-09T14:13:25.741Z,5.07
2022-12-09T14:14:27.487Z,5.15
2022-12-09T14:15:28.943Z,5.07
2022-12-09T14:16:30.363Z,5.18
2022-12-09T14:17:31.725Z,6.03
2022-12-09T14:18:34.090Z,5.50
2022-12-09T14:19:50.888Z,5.47
2022-12-09T14:21:18.080Z,5.70
2022-12-09T14:22:31.885Z,5.00
2022-12-09T14:23:33.321Z,5.40
2022-12-09T14:24:35.656Z,6.22
2022-12-09T14:25:37.022Z,5.90
2022-12-09T14:26:44.362Z,5.30
2022-12-09T14:28:10.388Z,6.03
2022-12-09T14:29:12.054Z,5.70
2022-12-09T14:30:35.324Z,5.63
2022-12-09T14:31:55.173Z,5.75
2022-12-09T14:32:57.240Z,4.97
2022-12-09T14:33:58.819Z,6.20
2022-12-09T14:35:09.667Z,5.50
2022-12-09T14:36:14.037Z,5.25
2022-12-09T14:37:24.703Z,5.30
2022-12-09T14:40:14.162Z,6.75
2022-12-09T14:41:40.188Z,5.47
2022-12-09T14:42:50.636Z,5.32
2022-12-09T14:43:52.056Z,6.03
2022-12-09T14:45:09.329Z,5.32
2022-12-09T14:46:25.485Z,5.60
2022-12-09T14:47:41.915Z,5.80
2022-12-09T14:48:50.082Z,5.47
2022-12-09T14:49:54.243Z,6.13
2022-12-09T14:51:35.259Z,5.25
2022-12-09T14:52:36.758Z,5.60
2022-12-09T14:53:38.522Z,5.35
2022-12-09T14:54:47.641Z,5.50
2022-12-09T14:56:53.590Z,5.32
2022-12-09T14:57:58.234Z,5.72
2022-12-09T14:59:06.623Z,5.47
2022-12-09T15:00:35.625Z,5.45
2022-12-09T15:02:09.080Z,5.82
2022-12-09T15:03:44.852Z,5.53
2022-12-09T15:04:45.194Z,6.18
2022-12-09T15:06:19.545Z,5.53
2022-12-09T15:07:25.435Z,5.63
2022-12-09T15:08:32.328Z,6.25
2022-12-09T15:09:34.230Z,6.15
2022-12-09T15:10:38.213Z,6.90
2022-12-09T15:11:39.788Z,6.20
2022-12-09T15:12:44.485Z,5.88
2022-12-09T15:13:49.189Z,6.53